Aeroporto :







RITROVATECI SU...

 
LOGIN :

Iscrizione | Disclaimer

   EN    FR    IT 

 









Sommario :    VFR   VFR Marginale   IFR   IFR Intensivo   IFR Molto Intensivo
Visibilità : 
Base nubi : 
>= 8 km
>= 3000ft
5 / 8 km
1000 / 3000 ft
1500m / 5 km
500 / 1000 ft
800 / 1500m
200 / 500 ft
< 800m
< 200 ft
Simboli :   Temporali  Nebbia  Neve Forte  Precipitazioni Forti  Vento > 20 kt






- Altitudine del aeroporto : 496 ft
- Codice IATA : YQX


CYQX - Gander

ULTIMO METAR :
  • 220700Z 01018G28KT 3SM -SN BKN004 OVC011 01/01 A2951 RMK SF7SC1 SLP002

METARs OBSOLETI :
  • 220626Z 02017G26KT 3SM -SN BKN004 OVC011 01/00 A2952 RMK SF7SC1 SLP005
  • 220600Z 01020G27KT 2 1/2SM -SN BKN003 OVC009 01/00 A2953 RMK SN2SF5SF1 /S02/ SLP009
  • 220500Z 01019G27KT 3SM -SN BKN003 OVC009 01/00 A2954 RMK SF6SF2 SLP012

TAF TAF CYQX
Valido dal 22 a 06 ore il 23 a 06 ore UTC


220538Z 2206/2306 01020G32KT 1SM -SN OVC003
TEMPO 2206/2215 2SM -RASN BR SCT003 OVC010
FM221500 35020G32KT 1SM -DZ BR OVC003
BECMG 2219/2221 34015G25KT
BECMG 2222/2224 33012G22KT
FM230100 32012G22KT 1/2SM -DZ FG VV002 RMK NXT FCST BY 221200Z



MetMap, La meteo Aeronautica in un colpo d'occhio ! - Copyright ORBIFLY Dicembre 2007 - Disclaimer

ORBIFLY MET'MAP TEAM :

Programmazione e sviluppo : Alexandra Zaïnal
Concezione e sviluppo : Baudouin d'Aumeries
Co-Programmazione e sviluppo : Marc-Olivier Méhu
Supporto tecnico e logistico : Manuel Goepfert
Aiuto per la traduzione : Arnaldo La Scala

Contatto : metmap@orbifly.com




FONTI E CREDITI :

   NOAA